メインページ
METAR-TAF:

METAR-TAF

空港 :

メンドーサ, アルゼンチン

緯度: 32-50S, 経度: 068-47W, 海抜: 705m

現時点の気象観測

当レポートは33分前の15:00(UTC)に作成
の風 5kt
気温 14°C
湿度 58%
気圧 1009 hPa
視程10km以上
1,500メートル以下は雲なし、積乱雲なし

METAR: SAME 251500Z 18005KT CAVOK 14/06 Q1009

時間: 12:33 (15:33 UTC)

予報

当レポートは4時間33分前の11:00(UTC)に作成
予報は25日の 12時(UTC)から 26日の 12時(UTC)まで有効
北東の風 5kt
視程: 5000m
高度3000ftの雲は散在している
高度6000ftの千切れ雲あり
25日の 18時(UTC)から 25日の 20時(UTC)まで一時的に
南東の風 10kt
視程10km以上
高度4000ftの曇り

TAF: SAME 251100Z 2512/2612 05005KT 5000 BR SCT030 BKN060 TX17/2520Z TN08/2610Z TEMPO 2518/2520 14010KT 9999 OVC040

4,000以上の空港の気象観測と天気予報(METAR報とTAF報)

利用可能な観測所は地図上に黄色い丸と赤い丸で示す。

丸の上にカーソルを重ねると観測所名を参照できる。

次にクリックすると気象観測と天気予報を参照できる。

マップの切り替え:黒色「×」印の緑ボタンをクリックして拡大、「-」印の緑ボタンをクリックして縮小、緑色の三角印をクリックして隣りの地図に切り替え


METAR-TAF: